This is the latest recevied weather packets stored in our database for station/object KY4GW. If no packets are shown the sender has not sent any weather packets the latest 1 day(s).
| Time | Temp. | Humidity | Pressure | Rain* | Wind** | Luminosity | Snow |
|---|---|---|---|---|---|---|---|
| 1777994885 | 20.56° C | 63% | 1013.4 hPa | 0 mm | 0 m/s | 358 W/m² | - |
| 1777994582 | 20.56° C | 62% | 1013.4 hPa | 0 mm | 0.45 m/s, 246° | 351 W/m² | - |
| 1777994276 | 20.56° C | 63% | 1013.4 hPa | 0 mm | 0.89 m/s, 184° | 337 W/m² | - |
| 1777993974 | 20.56° C | 63% | 1013.4 hPa | 0 mm | 0.89 m/s, 172° | 331 W/m² | - |
| 1777993670 | 20° C | 64% | 1013.4 hPa | 0 mm | 0 m/s | 319 W/m² | - |
| 1777993368 | 20° C | 63% | 1013.4 hPa | 0 mm | 0.89 m/s, 217° | 319 W/m² | - |
| 1777993067 | 20° C | 62% | 1013.4 hPa | 0 mm | 0.89 m/s, 264° | 302 W/m² | - |
| 1777992766 | 19.44° C | 62% | 1013.4 hPa | 0 mm | 0.45 m/s, 150° | 295 W/m² | - |
| 1777992463 | 19.44° C | 65% | 1013.4 hPa | 0 mm | 0.89 m/s, 144° | 276 W/m² | - |
| 1777992161 | 19.44° C | 64% | 1013.1 hPa | 0 mm | 1.34 m/s, 222° | 266 W/m² | - |
| 1777991858 | 19.44° C | 63% | 1013.1 hPa | 0 mm | 0.89 m/s, 114° | 255 W/m² | - |
| 1777991556 | 19.44° C | 64% | 1013.1 hPa | 0 mm | 0 m/s | 280 W/m² | - |
| 1777991255 | 19.44° C | 67% | 1013.4 hPa | 0 mm | 0 m/s | 289 W/m² | - |
| 1777990950 | 19.44° C | 64% | 1013.4 hPa | 0 mm | 0.89 m/s, 282° | 300 W/m² | - |
| 1777990648 | 18.89° C | 65% | 1013.8 hPa | 0 mm | 0.89 m/s, 228° | 249 W/m² | - |
| 1777990345 | 18.89° C | 65% | 1013.8 hPa | 0 mm | 0.89 m/s, 275° | 244 W/m² | - |
| 1777990040 | 18.89° C | 64% | 1013.8 hPa | 0 mm | 0.89 m/s, 180° | 225 W/m² | - |
| 1777989737 | 18.89° C | 64% | 1013.8 hPa | 0 mm | 0.89 m/s, 222° | 218 W/m² | - |
| 1777989434 | 18.89° C | 65% | 1013.4 hPa | 0 mm | 0.89 m/s, 205° | 211 W/m² | - |
| 1777989130 | 18.89° C | 64% | 1013.4 hPa | 0 mm | 0 m/s | 226 W/m² | - |
| 1777988826 | 18.33° C | 64% | 1013.4 hPa | 0 mm | 0.89 m/s, 204° | 221 W/m² | - |
| 1777988524 | 18.33° C | 65% | 1013.4 hPa | 0 mm | 0.45 m/s, 192° | 201 W/m² | - |
| 1777988220 | 18.89° C | 66% | 1013.4 hPa | 0 mm | 0.89 m/s, 179° | 195 W/m² | - |
| 1777987917 | 18.89° C | 65% | 1013.4 hPa | 0 mm | 0.89 m/s, 204° | 184 W/m² | - |
| 1777987613 | 18.89° C | 63% | 1013.8 hPa | 0 mm | 0.89 m/s, 240° | 206 W/m² | - |
* Rain latest hour (hover to see other rain measurements)
** Current wind speed in m/s (hover to see current wind gust speed)